createdAt,value
2022-09-23T00:00:09.531Z,9.02
2022-09-23T00:02:14.576Z,8.15
2022-09-23T00:04:16.902Z,8.98
2022-09-23T00:06:20.722Z,7.90
2022-09-23T00:08:23.072Z,8.40
2022-09-23T00:10:27.634Z,9.40
2022-09-23T00:12:29.982Z,8.80
2022-09-23T00:14:32.313Z,9.65
2022-09-23T00:16:38.894Z,8.45
2022-09-23T00:18:44.655Z,9.50
2022-09-23T00:20:47.019Z,8.38
2022-09-23T00:22:51.734Z,8.15
2022-09-23T00:24:53.985Z,10.48
2022-09-23T00:26:56.204Z,8.60
2022-09-23T00:28:58.519Z,7.97
2022-09-23T00:31:03.141Z,7.43
2022-09-23T00:33:08.066Z,7.90
2022-09-23T00:35:12.665Z,8.30
2022-09-23T00:37:14.919Z,9.55
2022-09-23T00:39:20.305Z,8.68
2022-09-23T00:41:22.964Z,9.13
2022-09-23T00:43:40.417Z,8.95
2022-09-23T00:45:47.008Z,9.40
2022-09-23T00:47:54.880Z,8.82
2022-09-23T00:50:06.502Z,8.45
2022-09-23T00:52:20.136Z,9.30
2022-09-23T00:54:24.791Z,10.07
2022-09-23T00:56:27.121Z,8.57
2022-09-23T00:58:34.111Z,9.23
2022-09-23T01:00:36.695Z,8.15
2022-09-23T01:02:42.346Z,8.23
2022-09-23T01:04:45.244Z,10.18
2022-09-23T01:06:50.211Z,9.68
2022-09-23T01:08:55.677Z,9.02
2022-09-23T01:11:08.216Z,9.68
2022-09-23T01:13:17.408Z,11.70
2022-09-23T01:15:25.056Z,9.80
2022-09-23T01:17:34.592Z,9.25
2022-09-23T01:20:05.822Z,12.52
2022-09-23T01:22:17.493Z,10.60
2022-09-23T01:24:45.486Z,11.10
2022-09-23T01:26:59.995Z,9.65
2022-09-23T01:29:19.088Z,9.48
2022-09-23T01:31:30.046Z,10.07
2022-09-23T01:33:40.200Z,9.50
2022-09-23T01:36:19.061Z,11.25
2022-09-23T01:38:32.879Z,11.02
2022-09-23T01:40:45.435Z,9.65
2022-09-23T01:42:54.024Z,9.65
2022-09-23T01:45:00.982Z,8.65
2022-09-23T01:47:11.016Z,9.73
2022-09-23T01:49:18.315Z,8.32
2022-09-23T01:51:25.366Z,9.63
2022-09-23T01:53:34.929Z,9.00
2022-09-23T01:55:45.418Z,8.65
2022-09-23T01:57:58.138Z,9.07
2022-09-23T02:00:05.624Z,10.43
2022-09-23T02:02:15.431Z,11.57
2022-09-23T02:04:23.982Z,8.75
2022-09-23T02:06:30.217Z,9.13
2022-09-23T02:08:37.806Z,9.48
2022-09-23T02:10:44.715Z,9.65
2022-09-23T02:12:49.992Z,11.13
2022-09-23T02:14:57.891Z,9.77
2022-09-23T02:17:04.845Z,10.40
2022-09-23T02:19:13.611Z,10.18
2022-09-23T02:21:17.907Z,9.75
2022-09-23T02:25:43.133Z,9.52
2022-09-23T02:27:53.062Z,10.98
2022-09-23T02:30:01.663Z,10.27
2022-09-23T02:32:13.840Z,12.15
2022-09-23T02:34:28.630Z,12.27
2022-09-23T02:36:36.901Z,12.25
2022-09-23T02:38:44.706Z,12.65
2022-09-23T02:40:58.754Z,12.75
2022-09-23T02:43:12.502Z,12.38
2022-09-23T02:45:15.066Z,14.50
2022-09-23T02:47:23.166Z,14.63
2022-09-23T02:49:29.888Z,14.05
2022-09-23T02:51:37.885Z,11.32
2022-09-23T02:53:40.365Z,11.40
2022-09-23T02:55:42.973Z,12.55
2022-09-23T02:57:45.864Z,11.23
2022-09-23T02:59:48.204Z,9.13
2022-09-23T03:02:15.631Z,9.05
2022-09-23T03:04:27.340Z,9.73
2022-09-23T03:06:38.866Z,10.80
2022-09-23T03:08:50.511Z,11.23
2022-09-23T03:11:04.401Z,10.55
2022-09-23T03:13:17.570Z,11.93
2022-09-23T03:15:25.190Z,8.82
2022-09-23T03:17:34.997Z,10.80
2022-09-23T03:19:42.831Z,10.00
2022-09-23T03:21:53.288Z,10.35
2022-09-23T03:23:59.547Z,10.10
2022-09-23T03:26:06.045Z,9.20
2022-09-23T03:28:09.886Z,10.60
2022-09-23T03:30:13.816Z,9.27
2022-09-23T03:32:21.098Z,9.18
2022-09-23T03:34:27.021Z,9.95
2022-09-23T03:36:52.026Z,11.77
2022-09-23T03:39:03.884Z,10.32
2022-09-23T03:41:10.746Z,9.98
2022-09-23T03:43:13.429Z,10.13
2022-09-23T03:45:19.120Z,11.52
2022-09-23T03:47:21.956Z,13.18
2022-09-23T03:49:27.375Z,12.15
2022-09-23T03:51:29.738Z,11.68
2022-09-23T03:53:31.982Z,11.05
2022-09-23T03:55:39.456Z,11.25
2022-09-23T03:57:41.853Z,12.27
2022-09-23T03:59:44.416Z,10.98
2022-09-23T04:01:46.735Z,10.20
2022-09-23T04:03:49.246Z,10.85
2022-09-23T04:05:51.915Z,9.02
2022-09-23T04:07:56.966Z,9.40
2022-09-23T04:09:59.453Z,9.77
2022-09-23T04:12:05.006Z,10.77
2022-09-23T04:14:08.095Z,10.45
2022-09-23T04:16:10.372Z,10.93
2022-09-23T04:18:12.634Z,10.52
2022-09-23T04:20:15.365Z,11.70
2022-09-23T04:22:17.670Z,8.90
2022-09-23T04:24:20.227Z,11.95
2022-09-23T04:26:22.437Z,10.02
2022-09-23T04:28:27.518Z,10.50
2022-09-23T04:30:29.784Z,9.35
2022-09-23T04:32:32.056Z,8.48
2022-09-23T04:34:34.364Z,8.07
2022-09-23T04:36:36.903Z,8.77
2022-09-23T04:38:39.258Z,10.82
2022-09-23T04:40:41.770Z,10.73
2022-09-23T04:42:44.999Z,11.37
2022-09-23T04:44:52.732Z,10.18
2022-09-23T04:46:55.360Z,10.43
2022-09-23T04:48:57.892Z,9.07
2022-09-23T04:51:03.406Z,10.55
2022-09-23T04:53:06.538Z,11.07
2022-09-23T04:55:11.321Z,10.60
2022-09-23T04:57:14.486Z,10.65
2022-09-23T04:59:18.312Z,11.48
2022-09-23T05:01:25.363Z,8.60
2022-09-23T05:03:27.690Z,9.02
2022-09-23T05:05:31.175Z,9.80
2022-09-23T05:07:33.490Z,8.75
2022-09-23T05:09:39.137Z,9.55
2022-09-23T05:11:41.370Z,8.88
2022-09-23T05:13:46.429Z,7.90
2022-09-23T05:15:48.925Z,8.32
2022-09-23T05:17:57.009Z,8.60
2022-09-23T05:19:59.510Z,8.55
2022-09-23T05:22:01.891Z,9.13
2022-09-23T05:24:04.940Z,9.65
2022-09-23T05:26:09.209Z,10.77
2022-09-23T05:28:13.713Z,10.05
2022-09-23T05:30:18.025Z,9.52
2022-09-23T05:32:20.408Z,8.98
2022-09-23T05:34:25.308Z,9.30
2022-09-23T05:36:33.071Z,9.52
2022-09-23T05:38:38.706Z,9.70
2022-09-23T05:40:41.039Z,10.77
2022-09-23T05:42:44.227Z,10.70
2022-09-23T05:44:47.241Z,11.20
2022-09-23T05:46:49.722Z,11.25
2022-09-23T05:48:59.861Z,10.38
2022-09-23T05:51:13.036Z,11.15
2022-09-23T05:53:15.431Z,10.93
2022-09-23T05:55:17.799Z,12.57
2022-09-23T05:57:21.111Z,11.15
2022-09-23T05:59:26.119Z,11.38
2022-09-23T06:01:33.565Z,12.00
2022-09-23T06:03:36.491Z,10.35
2022-09-23T06:05:38.712Z,12.38
2022-09-23T06:07:43.562Z,12.95
2022-09-23T06:09:45.943Z,13.40
2022-09-23T06:11:48.311Z,11.15
2022-09-23T06:13:55.136Z,14.10
2022-09-23T06:15:58.575Z,11.73
2022-09-23T06:18:01.433Z,11.55
2022-09-23T06:20:05.442Z,14.02
2022-09-23T06:22:11.023Z,13.13
2022-09-23T06:24:19.937Z,13.30
2022-09-23T06:26:24.478Z,14.80
2022-09-23T06:28:30.255Z,11.30
2022-09-23T06:30:34.853Z,12.00
2022-09-23T06:32:37.248Z,12.18
2022-09-23T06:34:50.706Z,13.75
2022-09-23T06:36:55.614Z,13.50
2022-09-23T06:38:57.981Z,13.05
2022-09-23T06:41:03.534Z,14.27
2022-09-23T06:43:07.787Z,14.77
2022-09-23T06:45:13.272Z,11.93
2022-09-23T06:47:15.528Z,13.55
2022-09-23T06:49:20.855Z,12.50
2022-09-23T06:51:23.174Z,13.57
2022-09-23T06:53:25.915Z,14.02
2022-09-23T06:55:28.272Z,13.88
2022-09-23T06:57:34.226Z,12.85
2022-09-23T06:59:36.493Z,13.65
2022-09-23T07:01:39.147Z,13.43
2022-09-23T07:03:42.281Z,12.93
2022-09-23T07:05:52.178Z,13.68
2022-09-23T07:07:54.697Z,13.75
2022-09-23T07:09:56.916Z,11.80
2022-09-23T07:11:59.233Z,13.55
2022-09-23T07:14:06.708Z,13.10
2022-09-23T07:16:10.087Z,13.93
2022-09-23T07:18:17.950Z,13.37
2022-09-23T07:20:20.289Z,12.57
2022-09-23T07:22:23.436Z,13.93
2022-09-23T07:24:25.772Z,14.27
2022-09-23T07:26:29.608Z,13.15
2022-09-23T07:28:32.283Z,13.27
2022-09-23T07:30:46.438Z,14.43
2022-09-23T07:32:54.312Z,13.57
2022-09-23T07:34:59.707Z,11.73
2022-09-23T07:37:02.867Z,12.32
2022-09-23T07:39:05.285Z,12.57
2022-09-23T07:41:10.337Z,11.00
2022-09-23T07:43:16.006Z,12.75
2022-09-23T07:45:18.525Z,12.85
2022-09-23T07:47:25.655Z,11.95
2022-09-23T07:49:28.119Z,12.45
2022-09-23T07:51:36.009Z,13.32
2022-09-23T07:53:38.519Z,13.05
2022-09-23T07:55:43.628Z,12.32
2022-09-23T07:57:46.488Z,13.63
2022-09-23T07:59:48.986Z,11.98
2022-09-23T08:01:55.574Z,11.85
2022-09-23T08:04:02.967Z,13.43
2022-09-23T08:06:07.600Z,13.05
2022-09-23T08:08:10.425Z,11.93
2022-09-23T08:10:12.877Z,11.73
2022-09-23T08:12:17.819Z,12.25
2022-09-23T08:14:22.372Z,12.75
2022-09-23T08:16:24.823Z,10.93
2022-09-23T08:18:27.519Z,11.70
2022-09-23T08:20:48.150Z,11.73
2022-09-23T08:22:51.001Z,11.80
2022-09-23T08:24:55.299Z,12.00
2022-09-23T08:27:02.158Z,12.65
2022-09-23T08:29:06.938Z,11.43
2022-09-23T08:31:09.382Z,11.32
2022-09-23T08:33:12.177Z,11.52
2022-09-23T08:35:14.860Z,11.68
2022-09-23T08:37:20.174Z,11.23
2022-09-23T08:39:23.228Z,11.68
2022-09-23T08:41:37.327Z,11.93
2022-09-23T08:43:47.475Z,12.00
2022-09-23T08:45:54.367Z,11.18
2022-09-23T08:48:02.153Z,10.90
2022-09-23T08:50:08.331Z,11.05
2022-09-23T08:52:17.875Z,11.38
2022-09-23T08:54:24.626Z,11.23
2022-09-23T08:56:29.121Z,11.05
2022-09-23T08:58:53.636Z,11.60
2022-09-23T09:01:07.131Z,10.93
2022-09-23T09:03:20.372Z,11.35
2022-09-23T09:05:26.341Z,9.63
2022-09-23T09:07:38.400Z,10.48
2022-09-23T09:09:48.874Z,10.13
2022-09-23T09:11:57.941Z,9.95
2022-09-23T09:14:04.933Z,10.75
2022-09-23T09:16:36.334Z,10.73
2022-09-23T09:18:50.702Z,10.35
2022-09-23T09:20:59.798Z,10.63
2022-09-23T09:23:14.242Z,11.13
2022-09-23T09:25:33.498Z,10.35
2022-09-23T09:27:40.656Z,11.15
2022-09-23T09:29:49.887Z,10.18
2022-09-23T09:31:52.602Z,10.18
2022-09-23T09:34:03.320Z,9.70
2022-09-23T09:36:18.808Z,10.10
2022-09-23T09:38:22.101Z,9.90
2022-09-23T09:40:27.045Z,10.48
2022-09-23T09:42:40.888Z,10.18
2022-09-23T09:47:02.075Z,9.52
2022-09-23T09:49:12.139Z,10.05
2022-09-23T09:51:20.537Z,10.23
2022-09-23T09:53:25.854Z,10.90
2022-09-23T09:55:30.868Z,10.25
2022-09-23T09:57:38.470Z,9.82
2022-09-23T09:59:43.134Z,10.07
2022-09-23T10:01:48.811Z,9.55
2022-09-23T10:03:57.066Z,9.35
2022-09-23T10:06:14.550Z,9.63
2022-09-23T10:08:24.854Z,9.80
2022-09-23T10:10:33.569Z,8.80
2022-09-23T10:12:44.633Z,9.48
2022-09-23T10:14:51.902Z,9.15
2022-09-23T10:17:05.509Z,8.90
2022-09-23T10:19:17.253Z,10.07
2022-09-23T10:21:27.799Z,9.07
2022-09-23T10:23:33.396Z,8.50
2022-09-23T10:25:38.510Z,8.70
2022-09-23T10:27:40.885Z,8.30
2022-09-23T10:29:50.902Z,8.85
2022-09-23T10:32:28.614Z,8.45
2022-09-23T10:34:35.051Z,8.15
2022-09-23T10:36:41.187Z,7.80
2022-09-23T10:39:20.294Z,8.30
2022-09-23T10:41:54.879Z,8.75
2022-09-23T10:44:08.268Z,8.30
2022-09-23T10:46:38.426Z,8.35
2022-09-23T10:48:53.356Z,7.82
2022-09-23T10:50:59.515Z,8.77
2022-09-23T10:53:12.349Z,9.55
2022-09-23T10:55:36.973Z,8.63
2022-09-23T10:57:55.479Z,8.18
2022-09-23T11:00:04.707Z,7.95
2022-09-23T11:02:30.111Z,7.72
2022-09-23T11:05:01.035Z,8.60
2022-09-23T11:07:14.289Z,8.55
2022-09-23T11:09:29.015Z,8.85
2022-09-23T11:11:46.458Z,9.05
2022-09-23T11:14:17.251Z,8.15
2022-09-23T11:16:36.294Z,9.23
2022-09-23T11:18:55.837Z,8.75
2022-09-23T11:21:09.110Z,8.70
2022-09-23T11:23:51.308Z,8.77
2022-09-23T11:26:02.487Z,8.85
2022-09-23T11:28:29.619Z,10.13
2022-09-23T11:30:44.657Z,9.70
2022-09-23T11:33:06.067Z,9.80
2022-09-23T11:35:16.809Z,9.10
2022-09-23T11:37:23.180Z,8.90
2022-09-23T11:39:29.960Z,9.05
2022-09-23T11:41:37.598Z,9.38
2022-09-23T11:43:49.565Z,8.63
2022-09-23T11:45:58.742Z,9.52
2022-09-23T11:48:09.105Z,9.23
2022-09-23T11:50:18.955Z,8.32
2022-09-23T11:52:26.460Z,9.80
2022-09-23T11:54:34.954Z,8.50
2022-09-23T11:56:45.611Z,10.50
2022-09-23T11:59:00.076Z,9.32
2022-09-23T12:01:28.740Z,9.00
2022-09-23T12:03:48.346Z,8.65
2022-09-23T12:05:58.887Z,9.75
2022-09-23T12:08:07.123Z,9.20
2022-09-23T12:10:11.939Z,9.38
2022-09-23T12:12:23.908Z,9.82
2022-09-23T12:14:35.543Z,9.57
2022-09-23T12:17:16.888Z,10.07
2022-09-23T12:19:37.171Z,10.20
2022-09-23T12:22:04.149Z,9.80
2022-09-23T12:24:26.677Z,10.65
2022-09-23T12:26:30.418Z,10.63
2022-09-23T12:28:36.205Z,9.07
2022-09-23T12:30:40.727Z,9.55
2022-09-23T12:32:46.332Z,10.02
2022-09-23T12:34:54.385Z,9.27
2022-09-23T12:37:03.372Z,9.23
2022-09-23T12:39:13.673Z,9.30
2022-09-23T12:41:24.253Z,9.73
2022-09-23T12:43:33.084Z,10.10
2022-09-23T12:45:43.096Z,9.60
2022-09-23T12:47:48.352Z,10.07
2022-09-23T12:49:53.278Z,10.07
2022-09-23T12:52:25.401Z,10.80
2022-09-23T12:54:27.837Z,9.23
2022-09-23T12:56:58.797Z,10.40
2022-09-23T12:59:11.419Z,10.43
2022-09-23T13:01:19.307Z,11.02
2022-09-23T13:03:53.326Z,10.57
2022-09-23T13:06:19.988Z,10.60
2022-09-23T13:08:25.297Z,10.40
2022-09-23T13:10:30.514Z,10.05
2022-09-23T13:12:38.413Z,10.68
2022-09-23T13:14:45.516Z,10.43
2022-09-23T13:16:49.157Z,10.68
2022-09-23T13:18:59.904Z,10.73
2022-09-23T13:21:16.994Z,9.20
2022-09-23T13:23:24.421Z,10.98
2022-09-23T13:25:28.902Z,10.65
2022-09-23T13:27:34.066Z,10.80
2022-09-23T13:29:41.146Z,10.10
2022-09-23T13:31:45.530Z,10.18
2022-09-23T13:33:53.358Z,10.82
2022-09-23T13:36:04.112Z,10.88
2022-09-23T13:38:18.708Z,11.18
2022-09-23T13:42:33.366Z,11.68
2022-09-23T13:44:46.222Z,11.45
2022-09-23T13:46:51.699Z,12.70
2022-09-23T13:48:55.386Z,12.00
2022-09-23T13:51:10.210Z,11.85
2022-09-23T13:53:18.149Z,12.15
2022-09-23T13:55:34.129Z,12.45
2022-09-23T13:57:36.986Z,11.48
2022-09-23T13:59:42.326Z,11.98
2022-09-23T14:03:48.189Z,11.13
2022-09-23T14:05:52.121Z,11.68
2022-09-23T14:10:02.165Z,12.27
2022-09-23T14:12:06.702Z,12.07
2022-09-23T14:14:15.366Z,13.10
2022-09-23T14:16:18.245Z,12.20
2022-09-23T14:18:29.000Z,12.13
2022-09-23T14:20:31.463Z,11.75
2022-09-23T14:22:33.725Z,12.40
2022-09-23T14:24:44.895Z,10.80
2022-09-23T14:26:49.582Z,11.88
2022-09-23T14:28:52.869Z,10.85
2022-09-23T14:30:57.942Z,12.45
2022-09-23T14:33:08.850Z,11.88
2022-09-23T14:35:20.312Z,11.07
2022-09-23T14:37:48.057Z,11.38
2022-09-23T14:39:57.838Z,11.55
2022-09-23T14:42:00.584Z,11.90
2022-09-23T14:44:04.506Z,12.30
2022-09-23T14:46:16.273Z,12.23
2022-09-23T14:48:26.816Z,12.02
2022-09-23T14:50:38.161Z,12.40
2022-09-23T14:52:49.183Z,12.50
2022-09-23T14:54:57.049Z,12.32
2022-09-23T14:57:00.433Z,12.15
2022-09-23T14:59:02.754Z,12.23
2022-09-23T15:01:26.160Z,11.23
2022-09-23T15:03:29.070Z,11.73
2022-09-23T15:05:39.255Z,12.60
2022-09-23T15:07:45.608Z,12.88
2022-09-23T15:09:50.937Z,12.52
2022-09-23T15:12:01.278Z,12.95
2022-09-23T15:14:33.105Z,11.73
2022-09-23T15:16:28.738Z,10.95
2022-09-23T15:18:34.148Z,13.20
2022-09-23T15:20:36.753Z,10.85
2022-09-23T15:22:44.625Z,12.73
2022-09-23T15:24:47.408Z,12.40
2022-09-23T15:26:51.420Z,12.57
2022-09-23T15:28:58.491Z,12.75
2022-09-23T15:31:01.258Z,12.32
2022-09-23T15:33:04.193Z,12.13
2022-09-23T15:35:07.908Z,11.05
2022-09-23T15:37:12.739Z,10.48
2022-09-23T15:39:15.456Z,12.48
2022-09-23T15:41:26.754Z,12.73
2022-09-23T15:43:33.995Z,12.70
2022-09-23T15:45:44.693Z,12.18
2022-09-23T15:47:50.761Z,13.32
2022-09-23T15:49:55.849Z,13.60
2022-09-23T15:52:00.284Z,15.25
2022-09-23T15:54:04.174Z,14.93
2022-09-23T15:56:06.555Z,12.07
2022-09-23T15:58:08.930Z,12.98
2022-09-23T16:00:16.099Z,14.25
2022-09-23T16:02:24.308Z,14.23
2022-09-23T16:04:28.353Z,13.63
2022-09-23T16:06:36.151Z,11.45
2022-09-23T16:08:42.285Z,14.00
2022-09-23T16:10:47.884Z,9.43
2022-09-23T16:12:52.214Z,13.75
2022-09-23T16:14:54.598Z,11.93
2022-09-23T16:16:57.651Z,13.30
2022-09-23T16:19:02.762Z,13.88
2022-09-23T16:21:07.829Z,14.45
2022-09-23T16:23:20.956Z,9.48
2022-09-23T16:25:29.259Z,12.85
2022-09-23T16:27:34.193Z,11.60
2022-09-23T16:29:36.569Z,12.80
2022-09-23T16:31:41.249Z,11.35
2022-09-23T16:33:47.351Z,13.00
2022-09-23T16:35:52.573Z,9.77
2022-09-23T16:37:55.835Z,13.55
2022-09-23T16:39:59.506Z,12.18
2022-09-23T16:42:02.337Z,12.43
2022-09-23T16:44:09.403Z,11.88
2022-09-23T16:46:13.282Z,11.88
2022-09-23T16:48:19.806Z,9.43
2022-09-23T16:50:23.478Z,10.73
2022-09-23T16:52:31.202Z,9.85
2022-09-23T16:54:37.513Z,11.02
2022-09-23T16:56:44.280Z,10.25
2022-09-23T16:58:49.478Z,10.20
2022-09-23T17:01:16.425Z,9.88
2022-09-23T17:03:37.422Z,9.88
2022-09-23T17:05:39.857Z,12.73
2022-09-23T17:07:45.027Z,13.15
2022-09-23T17:09:47.509Z,12.30
2022-09-23T17:11:58.024Z,13.60
2022-09-23T17:14:00.992Z,12.40
2022-09-23T17:16:03.737Z,12.80
2022-09-23T17:18:09.824Z,12.30
2022-09-23T17:20:14.300Z,11.82
2022-09-23T17:22:16.680Z,12.38
2022-09-23T17:24:25.342Z,9.93
2022-09-23T17:26:28.301Z,9.82
2022-09-23T17:28:37.549Z,9.60
2022-09-23T17:30:40.719Z,12.65
2022-09-23T17:32:43.427Z,9.38
2022-09-23T17:34:45.817Z,10.88
2022-09-23T17:36:48.600Z,11.35
2022-09-23T17:38:54.536Z,10.90
2022-09-23T17:41:01.422Z,11.18
2022-09-23T17:43:06.313Z,11.25
2022-09-23T17:45:10.507Z,11.85
2022-09-23T17:49:17.819Z,12.32
2022-09-23T17:51:24.126Z,11.98
2022-09-23T17:53:28.896Z,9.45
2022-09-23T17:55:33.333Z,10.10
2022-09-23T17:57:38.359Z,10.75
2022-09-23T17:59:40.793Z,8.27
2022-09-23T18:01:43.501Z,9.88
2022-09-23T18:03:56.989Z,11.48
2022-09-23T18:06:07.600Z,9.23
2022-09-23T18:08:13.300Z,11.05
2022-09-23T18:10:15.804Z,10.80
2022-09-23T18:12:20.379Z,11.23
2022-09-23T18:14:26.239Z,11.50
2022-09-23T18:16:30.984Z,11.05
2022-09-23T18:18:38.796Z,10.75
2022-09-23T18:20:47.351Z,11.68
2022-09-23T18:22:56.539Z,10.50
2022-09-23T18:25:22.745Z,11.38
2022-09-23T18:27:34.326Z,8.93
2022-09-23T18:29:43.865Z,11.70
2022-09-23T18:31:49.392Z,11.32
2022-09-23T18:33:53.069Z,10.10
2022-09-23T18:35:55.389Z,12.02
2022-09-23T18:37:57.863Z,11.57
2022-09-23T18:40:04.522Z,11.20
2022-09-23T18:42:06.905Z,13.20
2022-09-23T18:44:09.759Z,11.25
2022-09-23T18:46:19.108Z,11.60
2022-09-23T18:48:45.673Z,13.40
2022-09-23T18:50:49.343Z,11.65
2022-09-23T18:52:51.711Z,11.40
2022-09-23T18:54:55.040Z,13.32
2022-09-23T18:59:01.935Z,12.30
2022-09-23T19:01:09.674Z,11.52
2022-09-23T19:03:18.049Z,13.52
2022-09-23T19:05:20.517Z,13.55
2022-09-23T19:07:22.940Z,13.00
2022-09-23T19:09:25.460Z,13.32
2022-09-23T19:11:28.097Z,13.30
2022-09-23T19:13:34.329Z,13.38
2022-09-23T19:15:36.670Z,12.10
2022-09-23T19:17:38.974Z,12.48
2022-09-23T19:19:46.666Z,12.80
2022-09-23T19:21:49.052Z,11.85
2022-09-23T19:23:53.763Z,12.50
2022-09-23T19:25:56.340Z,13.27
2022-09-23T19:27:58.615Z,13.38
2022-09-23T19:30:01.305Z,13.57
2022-09-23T19:32:03.705Z,13.68
2022-09-23T19:34:10.766Z,13.18
2022-09-23T19:36:17.352Z,11.73
2022-09-23T19:38:21.468Z,11.45
2022-09-23T19:40:27.207Z,13.88
2022-09-23T19:42:30.390Z,13.32
2022-09-23T19:44:32.907Z,12.85
2022-09-23T19:46:39.989Z,13.40
2022-09-23T19:48:45.621Z,13.20
2022-09-23T19:50:48.327Z,13.93
2022-09-23T19:52:53.231Z,13.55
2022-09-23T19:54:55.838Z,14.23
2022-09-23T19:56:59.498Z,14.18
2022-09-23T19:59:05.952Z,13.05
2022-09-23T20:01:08.544Z,13.50
2022-09-23T20:03:12.197Z,14.10
2022-09-23T20:05:19.654Z,13.13
2022-09-23T20:07:24.063Z,14.40
2022-09-23T20:09:29.284Z,15.48
2022-09-23T20:11:32.519Z,14.20
2022-09-23T20:13:37.422Z,13.57
2022-09-23T20:15:43.887Z,15.30
2022-09-23T20:17:46.257Z,16.30
2022-09-23T20:19:51.606Z,15.82
2022-09-23T20:22:15.105Z,15.65
2022-09-23T20:24:17.593Z,15.73
2022-09-23T20:26:41.530Z,13.88
2022-09-23T20:28:44.252Z,15.77
2022-09-23T20:30:46.673Z,14.93
2022-09-23T20:32:50.488Z,16.95
2022-09-23T20:34:53.607Z,16.15
2022-09-23T20:37:02.439Z,15.63
2022-09-23T20:39:06.197Z,15.63
2022-09-23T20:41:09.417Z,13.93
2022-09-23T20:43:16.199Z,14.07
2022-09-23T20:45:18.724Z,16.48
2022-09-23T20:47:23.830Z,16.10
2022-09-23T20:49:26.366Z,17.70
2022-09-23T20:51:28.893Z,14.38
2022-09-23T20:53:32.388Z,14.80
2022-09-23T20:55:34.734Z,12.85
2022-09-23T20:57:38.185Z,14.45
2022-09-23T20:59:43.667Z,17.70
2022-09-23T21:01:47.868Z,17.92
2022-09-23T21:03:52.422Z,17.67
2022-09-23T21:05:56.079Z,18.80
2022-09-23T21:08:02.789Z,18.38
2022-09-23T21:10:08.602Z,17.45
2022-09-23T21:12:11.529Z,18.00
2022-09-23T21:14:15.901Z,17.15
2022-09-23T21:16:22.853Z,17.40
2022-09-23T21:18:25.368Z,18.08
2022-09-23T21:20:28.451Z,16.70
2022-09-23T21:22:31.244Z,17.15
2022-09-23T21:25:03.841Z,18.10
2022-09-23T21:26:56.930Z,19.35
2022-09-23T21:29:01.235Z,15.88
2022-09-23T21:31:05.748Z,18.17
2022-09-23T21:33:11.284Z,20.15
2022-09-23T21:35:14.347Z,19.00
2022-09-23T21:37:16.673Z,16.67
2022-09-23T21:39:19.557Z,17.75
2022-09-23T21:41:25.099Z,18.30
2022-09-23T21:43:31.822Z,17.65
2022-09-23T21:45:34.249Z,18.30
2022-09-23T21:47:36.742Z,19.10
2022-09-23T21:49:41.725Z,18.17
2022-09-23T21:51:55.204Z,19.15
2022-09-23T21:53:58.448Z,17.35
2022-09-23T21:56:03.491Z,19.67
2022-09-23T21:58:06.680Z,17.52
2022-09-23T22:00:11.344Z,19.85
2022-09-23T22:02:13.598Z,19.90
2022-09-23T22:04:18.146Z,18.85
2022-09-23T22:06:26.917Z,18.10
2022-09-23T22:08:31.945Z,19.08
2022-09-23T22:10:35.707Z,20.40
2022-09-23T22:12:39.931Z,18.42
2022-09-23T22:16:47.067Z,19.60
2022-09-23T22:18:51.100Z,19.73
2022-09-23T22:20:56.508Z,18.15
2022-09-23T22:23:08.360Z,19.95
2022-09-23T22:25:12.613Z,20.98
2022-09-23T22:29:36.528Z,20.15
2022-09-23T22:31:57.766Z,19.90
2022-09-23T22:34:00.214Z,20.50
2022-09-23T22:36:03.831Z,21.65
2022-09-23T22:38:11.423Z,21.27
2022-09-23T22:40:18.985Z,21.92
2022-09-23T22:42:22.525Z,22.58
2022-09-23T22:44:28.302Z,22.42
2022-09-23T22:46:33.475Z,20.90
2022-09-23T22:48:38.520Z,22.48
2022-09-23T22:50:48.788Z,21.77
2022-09-23T22:52:51.942Z,21.77
2022-09-23T22:54:56.852Z,24.33
2022-09-23T22:57:01.284Z,23.27
2022-09-23T22:59:06.789Z,22.80
2022-09-23T23:01:11.451Z,23.88
2022-09-23T23:03:14.163Z,24.70
2022-09-23T23:05:16.896Z,24.83
2022-09-23T23:07:21.150Z,25.50
2022-09-23T23:09:23.644Z,23.83
2022-09-23T23:11:30.804Z,24.55
2022-09-23T23:13:34.402Z,26.10
2022-09-23T23:15:42.374Z,26.05
2022-09-23T23:17:45.007Z,24.55
2022-09-23T23:19:47.786Z,23.20
2022-09-23T23:21:50.584Z,25.88
2022-09-23T23:23:53.708Z,26.95
2022-09-23T23:25:56.176Z,25.30
2022-09-23T23:28:05.649Z,24.95
2022-09-23T23:30:11.772Z,25.52
2022-09-23T23:32:16.271Z,24.60
2022-09-23T23:34:23.046Z,25.83
2022-09-23T23:36:26.334Z,28.23
2022-09-23T23:38:28.877Z,24.73
2022-09-23T23:40:31.244Z,28.05
2022-09-23T23:42:34.687Z,25.85
2022-09-23T23:44:39.733Z,29.65
2022-09-23T23:46:42.109Z,24.50
2022-09-23T23:48:48.226Z,26.75
2022-09-23T23:50:54.776Z,28.15
2022-09-23T23:52:58.070Z,28.92
2022-09-23T23:55:03.950Z,28.50
2022-09-23T23:57:06.284Z,32.13
2022-09-23T23:59:10.402Z,31.95
